createdAt,value
2022-10-03T00:01:44.221Z,11.00
2022-10-03T00:04:24.052Z,11.00
2022-10-03T00:07:03.412Z,10.90
2022-10-03T00:09:52.596Z,10.90
2022-10-03T00:12:47.158Z,10.90
2022-10-03T00:15:22.834Z,10.80
2022-10-03T00:18:03.687Z,10.80
2022-10-03T00:20:53.480Z,10.80
2022-10-03T00:23:29.817Z,10.70
2022-10-03T00:26:26.327Z,10.70
2022-10-03T00:29:08.840Z,10.70
2022-10-03T00:31:44.480Z,10.70
2022-10-03T00:34:25.689Z,10.60
2022-10-03T00:37:10.945Z,10.60
2022-10-03T00:40:01.809Z,10.60
2022-10-03T00:42:55.403Z,10.60
2022-10-03T00:45:59.851Z,10.50
2022-10-03T00:48:54.544Z,10.50
2022-10-03T00:51:40.686Z,10.50
2022-10-03T00:54:25.813Z,10.50
2022-10-03T00:57:09.600Z,10.50
2022-10-03T00:59:53.133Z,10.40
2022-10-03T01:02:37.656Z,10.40
2022-10-03T01:05:15.982Z,10.40
2022-10-03T01:08:09.828Z,10.40
2022-10-03T01:10:48.080Z,10.40
2022-10-03T01:13:33.208Z,10.40
2022-10-03T01:16:11.316Z,10.30
2022-10-03T01:18:54.288Z,10.30
2022-10-03T01:21:35.357Z,10.30
2022-10-03T01:24:34.171Z,10.30
2022-10-03T01:27:05.648Z,10.30
2022-10-03T01:30:03.445Z,10.30
2022-10-03T01:32:38.701Z,10.30
2022-10-03T01:35:19.367Z,10.30
2022-10-03T01:37:54.240Z,10.30
2022-10-03T01:40:29.639Z,10.20
2022-10-03T01:43:20.120Z,10.20
2022-10-03T01:46:09.831Z,10.20
2022-10-03T01:48:44.924Z,10.20
2022-10-03T01:51:17.680Z,10.20
2022-10-03T01:53:59.468Z,10.20
2022-10-03T01:56:34.330Z,10.10
2022-10-03T01:59:07.144Z,10.10
2022-10-03T02:01:47.612Z,10.10
2022-10-03T02:04:21.774Z,10.10
2022-10-03T02:07:00.637Z,10.10
2022-10-03T02:09:34.537Z,10.00
2022-10-03T02:12:10.645Z,10.00
2022-10-03T02:14:54.719Z,10.00
2022-10-03T02:17:30.715Z,10.00
2022-10-03T02:20:10.051Z,9.90
2022-10-03T02:22:44.717Z,9.90
2022-10-03T02:25:42.072Z,9.90
2022-10-03T02:28:36.262Z,9.90
2022-10-03T02:31:47.511Z,9.80
2022-10-03T02:34:33.135Z,9.80
2022-10-03T02:37:33.052Z,9.80
2022-10-03T02:40:29.207Z,9.80
2022-10-03T02:43:18.648Z,9.80
2022-10-03T02:46:27.393Z,9.70
2022-10-03T02:49:29.792Z,9.80
2022-10-03T02:52:22.622Z,9.70
2022-10-03T02:55:30.200Z,9.70
2022-10-03T02:58:31.084Z,9.70
2022-10-03T03:01:41.521Z,9.70
2022-10-03T03:04:38.832Z,9.60
2022-10-03T03:07:38.209Z,9.60
2022-10-03T03:10:36.893Z,9.60
2022-10-03T03:13:43.712Z,9.50
2022-10-03T03:16:46.299Z,9.50
2022-10-03T03:19:52.480Z,9.50
2022-10-03T03:22:35.113Z,9.40
2022-10-03T03:25:35.293Z,9.40
2022-10-03T03:28:12.987Z,9.40
2022-10-03T03:30:46.778Z,9.30
2022-10-03T03:33:26.409Z,9.30
2022-10-03T03:36:02.153Z,9.40
2022-10-03T03:38:42.872Z,9.40
2022-10-03T03:41:32.705Z,9.30
2022-10-03T03:44:20.092Z,9.40
2022-10-03T03:47:04.380Z,9.40
2022-10-03T03:49:47.634Z,9.40
2022-10-03T03:52:31.372Z,9.40
2022-10-03T03:55:15.106Z,9.40
2022-10-03T03:58:08.720Z,9.40
2022-10-03T04:00:49.737Z,9.40
2022-10-03T04:03:32.057Z,9.40
2022-10-03T04:06:16.152Z,9.40
2022-10-03T04:09:05.545Z,9.40
2022-10-03T04:11:49.755Z,9.40
2022-10-03T04:14:51.020Z,9.40
2022-10-03T04:17:48.905Z,9.40
2022-10-03T04:20:31.242Z,9.40
2022-10-03T04:23:13.724Z,9.40
2022-10-03T04:25:56.392Z,9.40
2022-10-03T04:28:42.047Z,9.40
2022-10-03T04:31:24.045Z,9.30
2022-10-03T04:34:08.041Z,9.30
2022-10-03T04:36:51.164Z,9.30
2022-10-03T04:39:33.765Z,9.20
2022-10-03T04:42:08.707Z,9.20
2022-10-03T04:44:50.369Z,9.10
2022-10-03T04:47:27.449Z,9.10
2022-10-03T04:50:02.103Z,9.10
2022-10-03T04:52:39.414Z,9.10
2022-10-03T04:55:20.554Z,9.10
2022-10-03T04:58:00.477Z,9.10
2022-10-03T05:00:41.812Z,9.10
2022-10-03T05:03:28.780Z,9.10
2022-10-03T05:06:00.416Z,9.10
2022-10-03T05:08:35.910Z,9.10
2022-10-03T05:11:12.456Z,9.10
2022-10-03T05:13:50.264Z,9.10
2022-10-03T05:16:31.398Z,9.10
2022-10-03T05:19:17.734Z,9.10
2022-10-03T05:21:51.546Z,9.10
2022-10-03T05:24:27.677Z,9.10
2022-10-03T05:27:05.454Z,9.10
2022-10-03T05:29:42.772Z,9.10
2022-10-03T05:32:26.399Z,9.10
2022-10-03T05:35:22.614Z,9.10
2022-10-03T05:38:11.264Z,9.10
2022-10-03T05:40:44.877Z,9.10
2022-10-03T05:43:28.911Z,9.10
2022-10-03T05:46:04.999Z,9.10
2022-10-03T05:48:45.335Z,9.10
2022-10-03T05:51:42.589Z,9.10
2022-10-03T05:54:39.853Z,9.10
2022-10-03T05:57:39.054Z,9.10
2022-10-03T06:00:16.398Z,9.10
2022-10-03T06:03:15.104Z,9.10
2022-10-03T06:06:00.611Z,9.20
2022-10-03T06:08:57.526Z,9.10
2022-10-03T06:11:45.536Z,9.10
2022-10-03T06:14:34.813Z,9.10
2022-10-03T06:17:29.475Z,9.10
2022-10-03T06:20:12.371Z,9.10
2022-10-03T06:23:14.444Z,9.10
2022-10-03T06:26:27.393Z,9.10
2022-10-03T06:29:19.090Z,9.10
2022-10-03T06:32:16.176Z,9.10
2022-10-03T06:35:08.138Z,9.10
2022-10-03T06:38:21.758Z,9.20
2022-10-03T06:41:27.173Z,9.20
2022-10-03T06:44:10.348Z,9.40
2022-10-03T06:47:17.813Z,9.50
2022-10-03T06:50:19.444Z,9.70
2022-10-03T06:53:20.058Z,9.90
2022-10-03T06:56:31.850Z,10.10
2022-10-03T06:59:38.518Z,10.30
2022-10-03T07:02:45.464Z,10.50
2022-10-03T07:06:04.083Z,10.70
2022-10-03T07:08:59.746Z,10.80
2022-10-03T07:11:52.521Z,10.90
2022-10-03T07:14:45.115Z,10.90
2022-10-03T07:17:35.036Z,11.00
2022-10-03T07:20:17.401Z,11.10
2022-10-03T07:23:27.493Z,11.20
2022-10-03T07:26:24.032Z,11.30
2022-10-03T07:29:23.901Z,11.40
2022-10-03T07:32:05.772Z,11.50
2022-10-03T07:35:05.780Z,11.60
2022-10-03T07:38:23.736Z,11.70
2022-10-03T07:41:24.393Z,11.90
2022-10-03T07:44:08.267Z,12.10
2022-10-03T07:47:19.131Z,12.20
2022-10-03T07:50:05.617Z,12.40
2022-10-03T07:52:56.167Z,12.50
2022-10-03T07:55:34.428Z,12.70
2022-10-03T07:58:27.480Z,12.80
2022-10-03T08:01:24.791Z,12.90
2022-10-03T08:04:18.061Z,13.10
2022-10-03T08:06:52.878Z,13.20
2022-10-03T08:09:42.621Z,13.30
2022-10-03T08:12:54.139Z,13.40
2022-10-03T08:15:31.122Z,13.50
2022-10-03T08:18:32.570Z,13.70
2022-10-03T08:21:02.852Z,13.90
2022-10-03T08:24:07.056Z,14.10
2022-10-03T08:26:53.436Z,14.30
2022-10-03T08:29:47.443Z,14.50
2022-10-03T08:32:57.945Z,14.70
2022-10-03T08:35:54.177Z,14.90
2022-10-03T08:38:46.397Z,15.10
2022-10-03T08:41:50.229Z,15.40
2022-10-03T08:44:54.346Z,15.70
2022-10-03T08:48:03.273Z,15.90
2022-10-03T08:50:58.537Z,16.30
2022-10-03T08:53:57.691Z,16.70
2022-10-03T08:56:33.210Z,17.10
2022-10-03T08:59:35.350Z,17.50
2022-10-03T09:02:44.595Z,17.90
2022-10-03T09:05:41.472Z,18.20
2022-10-03T09:08:42.830Z,18.50
2022-10-03T09:11:38.091Z,18.70
2022-10-03T09:14:37.140Z,18.90
2022-10-03T09:17:20.750Z,19.10
2022-10-03T09:20:31.344Z,19.10
2022-10-03T09:23:19.135Z,19.20
2022-10-03T09:26:18.838Z,19.40
2022-10-03T09:29:21.243Z,19.60
2022-10-03T09:32:23.525Z,20.00
2022-10-03T09:35:15.837Z,20.20
2022-10-03T09:38:16.777Z,20.30
2022-10-03T09:41:23.411Z,21.40
2022-10-03T09:44:23.804Z,23.30
2022-10-03T09:47:28.865Z,25.80
2022-10-03T09:50:42.527Z,27.80
2022-10-03T09:53:49.338Z,29.70
2022-10-03T09:57:11.556Z,30.00
2022-10-03T10:00:00.516Z,29.30
2022-10-03T10:02:54.057Z,28.20
2022-10-03T10:06:09.919Z,27.20
2022-10-03T10:09:22.505Z,26.10
2022-10-03T10:12:07.836Z,25.10
2022-10-03T10:15:08.330Z,24.00
2022-10-03T10:18:09.010Z,23.20
2022-10-03T10:21:17.294Z,22.40
2022-10-03T10:23:55.484Z,21.70
2022-10-03T10:27:01.597Z,21.20
2022-10-03T10:30:10.802Z,20.90
2022-10-03T10:33:20.255Z,21.50
2022-10-03T10:36:26.842Z,23.20
2022-10-03T10:39:24.307Z,25.40
2022-10-03T10:42:27.710Z,27.00
2022-10-03T10:45:24.187Z,28.20
2022-10-03T10:48:36.952Z,28.60
2022-10-03T10:51:47.028Z,28.70
2022-10-03T10:54:53.599Z,29.90
2022-10-03T10:57:52.728Z,31.60
2022-10-03T11:00:27.306Z,32.80
2022-10-03T11:03:43.914Z,33.50
2022-10-03T11:06:53.388Z,34.10
2022-10-03T11:09:53.653Z,34.60
2022-10-03T11:13:05.069Z,34.60
2022-10-03T11:16:04.605Z,34.30
2022-10-03T11:19:17.745Z,33.40
2022-10-03T11:22:16.306Z,31.90
2022-10-03T11:25:21.019Z,30.40
2022-10-03T11:28:24.033Z,29.00
2022-10-03T11:31:27.991Z,27.70
2022-10-03T11:34:25.771Z,26.60
2022-10-03T11:37:09.222Z,25.70
2022-10-03T11:39:49.070Z,25.00
2022-10-03T11:42:27.787Z,24.50
2022-10-03T11:45:00.476Z,24.20
2022-10-03T11:47:43.425Z,24.10
2022-10-03T11:50:45.010Z,24.00
2022-10-03T11:53:24.233Z,24.00
2022-10-03T11:56:03.476Z,23.60
2022-10-03T11:58:59.706Z,23.30
2022-10-03T12:01:40.643Z,23.10
2022-10-03T12:04:17.441Z,22.90
2022-10-03T12:07:15.899Z,22.70
2022-10-03T12:09:56.926Z,22.40
2022-10-03T12:12:35.899Z,22.10
2022-10-03T12:15:18.231Z,21.90
2022-10-03T12:17:55.442Z,21.70
2022-10-03T12:20:30.757Z,21.40
2022-10-03T12:23:04.860Z,21.30
2022-10-03T12:25:36.820Z,21.20
2022-10-03T12:28:14.704Z,21.20
2022-10-03T12:30:49.594Z,21.10
2022-10-03T12:33:32.842Z,21.20
2022-10-03T12:36:10.424Z,21.10
2022-10-03T12:38:59.525Z,21.10
2022-10-03T12:41:45.190Z,21.10
2022-10-03T12:44:23.482Z,21.00
2022-10-03T12:47:03.122Z,21.00
2022-10-03T12:49:45.749Z,20.80
2022-10-03T12:52:21.682Z,20.70
2022-10-03T12:54:57.771Z,20.60
2022-10-03T12:57:53.609Z,20.60
2022-10-03T13:00:26.776Z,20.50
2022-10-03T13:03:15.161Z,20.50
2022-10-03T13:06:38.816Z,20.50
2022-10-03T13:09:29.662Z,20.50
2022-10-03T13:12:07.587Z,20.50
2022-10-03T13:15:03.451Z,20.50
2022-10-03T13:17:41.476Z,20.50
2022-10-03T13:20:20.572Z,20.50
2022-10-03T13:23:00.477Z,20.50
2022-10-03T13:25:35.232Z,20.50
2022-10-03T13:28:10.447Z,20.50
2022-10-03T13:30:47.142Z,20.50
2022-10-03T13:33:19.779Z,20.40
2022-10-03T13:36:00.142Z,20.40
2022-10-03T13:39:08.030Z,20.40
2022-10-03T13:42:01.387Z,20.30
2022-10-03T13:44:38.493Z,20.30
2022-10-03T13:47:20.122Z,20.20
2022-10-03T13:49:54.419Z,20.10
2022-10-03T13:52:32.859Z,20.10
2022-10-03T13:55:19.319Z,20.10
2022-10-03T13:57:58.524Z,20.10
2022-10-03T14:00:33.222Z,20.10
2022-10-03T14:03:22.543Z,20.00
2022-10-03T14:05:58.696Z,19.90
2022-10-03T14:08:41.068Z,19.80
2022-10-03T14:11:23.835Z,19.70
2022-10-03T14:14:19.908Z,19.60
2022-10-03T14:16:57.012Z,19.60
2022-10-03T14:19:36.267Z,19.50
2022-10-03T14:22:16.128Z,19.50
2022-10-03T14:25:04.282Z,19.50
2022-10-03T14:27:54.147Z,19.50
2022-10-03T14:30:23.827Z,19.60
2022-10-03T14:33:10.804Z,19.80
2022-10-03T14:35:43.894Z,19.80
2022-10-03T14:39:05.048Z,19.90
2022-10-03T14:41:48.352Z,20.00
2022-10-03T14:44:22.655Z,20.30
2022-10-03T14:46:57.320Z,20.50
2022-10-03T14:52:28.203Z,20.90
2022-10-03T14:54:58.277Z,20.90
2022-10-03T14:57:47.687Z,21.00
2022-10-03T15:00:34.764Z,21.00
2022-10-03T15:03:22.438Z,21.00
2022-10-03T15:06:01.527Z,20.90
2022-10-03T15:08:35.904Z,20.80
2022-10-03T15:11:06.355Z,20.70
2022-10-03T15:13:40.312Z,20.60
2022-10-03T15:16:14.966Z,20.50
2022-10-03T15:18:52.632Z,20.50
2022-10-03T15:21:22.021Z,20.40
2022-10-03T15:23:57.191Z,20.20
2022-10-03T15:26:28.160Z,20.10
2022-10-03T15:29:00.911Z,20.10
2022-10-03T15:31:36.696Z,20.00
2022-10-03T15:34:08.406Z,19.90
2022-10-03T15:36:39.728Z,19.80
2022-10-03T15:39:18.493Z,19.80
2022-10-03T15:41:53.457Z,19.70
2022-10-03T15:44:28.966Z,19.50
2022-10-03T15:47:01.904Z,19.40
2022-10-03T15:49:32.963Z,19.30
2022-10-03T15:52:09.031Z,19.20
2022-10-03T15:54:39.031Z,19.10
2022-10-03T15:57:08.916Z,19.00
2022-10-03T15:59:39.045Z,18.90
2022-10-03T16:02:16.590Z,18.80
2022-10-03T16:04:46.192Z,18.70
2022-10-03T16:07:24.585Z,18.60
2022-10-03T16:09:56.272Z,18.50
2022-10-03T16:12:48.067Z,18.40
2022-10-03T16:15:22.501Z,18.30
2022-10-03T16:17:56.761Z,18.20
2022-10-03T16:20:28.983Z,18.10
2022-10-03T16:22:58.856Z,18.00
2022-10-03T16:25:30.228Z,17.90
2022-10-03T16:28:03.173Z,17.90
2022-10-03T16:30:36.449Z,17.80
2022-10-03T16:33:15.034Z,17.70
2022-10-03T16:35:50.632Z,17.70
2022-10-03T16:38:23.273Z,17.60
2022-10-03T16:40:56.561Z,17.50
2022-10-03T16:43:26.028Z,17.40
2022-10-03T16:45:55.558Z,17.30
2022-10-03T16:48:46.774Z,17.20
2022-10-03T16:51:21.265Z,17.20
2022-10-03T16:53:52.605Z,17.00
2022-10-03T16:56:26.197Z,17.00
2022-10-03T16:58:56.626Z,16.90
2022-10-03T17:01:33.683Z,16.80
2022-10-03T17:04:15.753Z,16.70
2022-10-03T17:06:48.137Z,16.60
2022-10-03T17:09:22.813Z,16.40
2022-10-03T17:11:55.165Z,16.30
2022-10-03T17:14:25.213Z,16.20
2022-10-03T17:17:02.815Z,16.10
2022-10-03T17:19:39.768Z,16.00
2022-10-03T17:22:16.081Z,15.90
2022-10-03T17:24:48.340Z,15.80
2022-10-03T17:27:25.795Z,15.70
2022-10-03T17:30:00.117Z,15.60
2022-10-03T17:32:36.170Z,15.50
2022-10-03T17:35:15.651Z,15.40
2022-10-03T17:38:01.845Z,15.30
2022-10-03T17:40:51.529Z,15.10
2022-10-03T17:43:29.605Z,15.20
2022-10-03T17:46:05.771Z,15.10
2022-10-03T17:48:40.435Z,15.10
2022-10-03T17:51:32.404Z,15.10
2022-10-03T17:54:04.230Z,15.00
2022-10-03T17:56:34.635Z,15.00
2022-10-03T17:59:06.113Z,14.90
2022-10-03T18:01:40.356Z,14.80
2022-10-03T18:04:17.087Z,14.80
2022-10-03T18:06:50.285Z,14.70
2022-10-03T18:09:42.301Z,14.70
2022-10-03T18:12:18.368Z,14.60
2022-10-03T18:15:02.490Z,14.50
2022-10-03T18:17:37.311Z,14.50
2022-10-03T18:20:24.950Z,14.40
2022-10-03T18:23:02.149Z,14.40
2022-10-03T18:26:15.071Z,14.30
2022-10-03T18:28:49.890Z,14.30
2022-10-03T18:31:20.181Z,14.20
2022-10-03T18:33:54.360Z,14.20
2022-10-03T18:36:26.436Z,14.10
2022-10-03T18:39:00.634Z,14.10
2022-10-03T18:41:29.017Z,14.00
2022-10-03T18:44:00.427Z,14.00
2022-10-03T18:46:36.320Z,13.90
2022-10-03T18:49:31.932Z,13.90
2022-10-03T18:52:00.335Z,13.80
2022-10-03T18:54:38.375Z,13.80
2022-10-03T18:57:12.060Z,13.70
2022-10-03T18:59:48.994Z,13.70
2022-10-03T19:02:24.096Z,13.70
2022-10-03T19:04:56.775Z,13.60
2022-10-03T19:07:27.007Z,13.50
2022-10-03T19:10:34.663Z,13.50
2022-10-03T19:13:13.001Z,13.50
2022-10-03T19:16:05.766Z,13.40
2022-10-03T19:18:42.413Z,13.40
2022-10-03T19:21:18.552Z,13.40
2022-10-03T19:23:50.371Z,13.40
2022-10-03T19:26:24.893Z,13.30
2022-10-03T19:28:59.744Z,13.30
2022-10-03T19:31:32.591Z,13.30
2022-10-03T19:34:04.250Z,13.20
2022-10-03T19:36:35.876Z,13.20
2022-10-03T19:39:06.249Z,13.30
2022-10-03T19:41:38.727Z,13.30
2022-10-03T19:44:14.361Z,13.20
2022-10-03T19:46:53.160Z,13.30
2022-10-03T19:49:36.608Z,13.20
2022-10-03T19:52:13.095Z,13.20
2022-10-03T19:54:52.549Z,13.20
2022-10-03T19:57:24.934Z,13.20
2022-10-03T19:59:57.363Z,13.10
2022-10-03T20:02:27.463Z,13.10
2022-10-03T20:04:58.345Z,13.10
2022-10-03T20:07:45.692Z,13.10
2022-10-03T20:10:34.043Z,13.10
2022-10-03T20:13:03.975Z,13.10
2022-10-03T20:15:43.871Z,13.10
2022-10-03T20:18:22.226Z,13.10
2022-10-03T20:20:54.061Z,13.10
2022-10-03T20:23:25.198Z,13.10
2022-10-03T20:25:58.002Z,13.00
2022-10-03T20:28:38.562Z,13.00
2022-10-03T20:31:08.994Z,13.00
2022-10-03T20:33:38.151Z,12.90
2022-10-03T20:36:13.841Z,12.90
2022-10-03T20:39:11.723Z,12.90
2022-10-03T20:41:55.469Z,12.80
2022-10-03T20:44:45.750Z,12.80
2022-10-03T20:47:27.884Z,12.70
2022-10-03T20:49:59.314Z,12.70
2022-10-03T20:52:27.953Z,12.60
2022-10-03T20:55:01.780Z,12.60
2022-10-03T20:57:33.180Z,12.50
2022-10-03T21:00:10.380Z,12.50
2022-10-03T21:02:43.688Z,12.40
2022-10-03T21:05:21.070Z,12.30
2022-10-03T21:07:52.766Z,12.30
2022-10-03T21:10:28.793Z,12.30
2022-10-03T21:13:01.296Z,12.20
2022-10-03T21:15:40.551Z,12.20
2022-10-03T21:18:20.837Z,12.10
2022-10-03T21:20:57.231Z,12.10
2022-10-03T21:23:26.547Z,12.10
2022-10-03T21:25:58.798Z,12.00
2022-10-03T21:28:30.775Z,12.00
2022-10-03T21:31:17.063Z,11.90
2022-10-03T21:33:52.886Z,11.90
2022-10-03T21:36:27.533Z,11.80
2022-10-03T21:39:16.972Z,11.80
2022-10-03T21:42:07.074Z,11.70
2022-10-03T21:44:52.580Z,11.70
2022-10-03T21:47:34.453Z,11.70
2022-10-03T21:50:08.440Z,11.60
2022-10-03T21:52:56.688Z,11.60
2022-10-03T21:55:56.894Z,11.50
2022-10-03T21:58:43.111Z,11.50
2022-10-03T22:01:17.189Z,11.50
2022-10-03T22:03:52.528Z,11.50
2022-10-03T22:06:25.662Z,11.40
2022-10-03T22:08:54.507Z,11.40
2022-10-03T22:11:34.618Z,11.40
2022-10-03T22:14:14.681Z,11.30
2022-10-03T22:16:50.215Z,11.30
2022-10-03T22:19:23.140Z,11.30
2022-10-03T22:22:01.859Z,11.20
2022-10-03T22:24:39.825Z,11.20
2022-10-03T22:27:16.283Z,11.20
2022-10-03T22:29:56.095Z,11.20
2022-10-03T22:32:29.389Z,11.20
2022-10-03T22:35:08.906Z,11.10
2022-10-03T22:37:39.153Z,11.10
2022-10-03T22:40:08.416Z,11.10
2022-10-03T22:42:41.533Z,11.10
2022-10-03T22:45:11.800Z,11.10
2022-10-03T22:47:41.151Z,11.10
2022-10-03T22:50:12.844Z,11.10
2022-10-03T22:52:45.360Z,11.10
2022-10-03T22:55:17.332Z,11.10
2022-10-03T22:57:46.649Z,11.10
2022-10-03T23:00:17.488Z,11.10
2022-10-03T23:02:52.164Z,11.00
2022-10-03T23:05:32.273Z,11.00
2022-10-03T23:08:12.193Z,11.00
2022-10-03T23:10:49.582Z,10.90
2022-10-03T23:13:23.062Z,10.90
2022-10-03T23:15:56.848Z,10.80
2022-10-03T23:18:53.754Z,10.80
2022-10-03T23:21:21.704Z,10.80
2022-10-03T23:24:01.999Z,10.80
2022-10-03T23:26:59.680Z,10.80
2022-10-03T23:29:27.541Z,10.70
2022-10-03T23:31:58.824Z,10.70
2022-10-03T23:34:47.583Z,10.70
2022-10-03T23:37:44.388Z,10.70
2022-10-03T23:40:45.241Z,10.60
2022-10-03T23:43:36.934Z,10.60
2022-10-03T23:46:09.591Z,10.60
2022-10-03T23:48:44.231Z,10.60
2022-10-03T23:51:15.486Z,10.60
2022-10-03T23:53:47.256Z,10.50
2022-10-03T23:56:42.356Z,10.50
2022-10-03T23:59:13.143Z,10.50
